Disclaimer

Please do not use the information listed here in-flight or in-navigation, as they are not provided to us by the airports but are provided by volunteers, so they might be outdated.

Search


Regions


Airport information page

Radio informations:
ARACAJU APP - 120.3 MHz

Airport informations:
Latitude: 10° 59' 02.40" S
Longitude: 037° 04' 13.20" W
Elevation: 23 feet - 7 meters
Operating hours: 24 hour operations
Operating agency: Civil government, landing fees and diplomatic clearance may be required
Timezone: UTC-3(-2DT)
Fuel: Jet A1, without icing nhibitor.

100/130 octane gasoline, leaded, MIL-L-5572F (GREEN)

Runway information:
11/29 - 7218 x 148 feet< - >2200 x 45 meters

Recent METARs:
SBAR 202100Z 10013KT 9999 SCT017 27/21 Q1013
SBAR 202100Z 10013KT 9999 SCT017 27/21 Q1013
SBAR 202200Z 10014KT 9999 SCT017 27/21 Q1015

Airport on the map: